createdAt,value
2018-03-25T00:01:40.173Z,36.73
2018-03-25T00:04:07.404Z,37.43
2018-03-25T00:06:38.663Z,37.83
2018-03-25T00:09:05.933Z,36.97
2018-03-25T00:11:34.434Z,36.23
2018-03-25T00:14:01.429Z,33.87
2018-03-25T00:16:31.881Z,38.43
2018-03-25T00:18:59.217Z,36.50
2018-03-25T00:21:26.519Z,36.87
2018-03-25T00:23:54.361Z,35.83
2018-03-25T00:26:21.570Z,36.23
2018-03-25T00:28:48.616Z,33.90
2018-03-25T00:31:16.665Z,37.67
2018-03-25T00:33:43.861Z,42.33
2018-03-25T00:36:14.170Z,37.73
2018-03-25T00:38:41.349Z,37.80
2018-03-25T00:41:08.533Z,38.33
2018-03-25T00:43:37.006Z,39.83
2018-03-25T00:46:04.434Z,41.77
2018-03-25T00:48:31.730Z,40.00
2018-03-25T00:50:59.325Z,42.43
2018-03-25T00:53:27.303Z,37.80
2018-03-25T00:55:54.566Z,37.93
2018-03-25T00:58:21.715Z,42.47
2018-03-25T01:00:48.970Z,36.83
2018-03-25T01:03:16.178Z,36.33
2018-03-25T01:05:43.409Z,36.10
2018-03-25T01:08:14.109Z,35.37
2018-03-25T01:10:41.328Z,35.17
2018-03-25T01:13:08.606Z,33.63
2018-03-25T01:15:53.802Z,37.00
2018-03-25T01:18:21.062Z,35.50
2018-03-25T01:20:51.186Z,35.37
2018-03-25T01:23:18.892Z,34.27
2018-03-25T01:25:46.182Z,30.77
2018-03-25T01:28:13.481Z,29.93
2018-03-25T01:30:40.634Z,30.37
2018-03-25T01:33:07.985Z,33.13
2018-03-25T01:35:35.178Z,36.93
2018-03-25T01:38:02.483Z,37.80
2018-03-25T01:40:29.600Z,31.43
2018-03-25T01:42:56.820Z,33.50
2018-03-25T01:45:27.607Z,40.17
2018-03-25T01:47:58.294Z,38.13
2018-03-25T01:50:26.559Z,40.53
2018-03-25T01:52:53.655Z,37.17
2018-03-25T01:55:21.629Z,34.10
2018-03-25T01:57:49.938Z,32.53
2018-03-25T02:00:17.474Z,34.70
2018-03-25T02:02:44.709Z,33.37
2018-03-25T02:05:12.013Z,32.00
2018-03-25T02:07:40.169Z,33.03
2018-03-25T02:10:08.171Z,30.20
2018-03-25T02:12:35.496Z,30.47
2018-03-25T02:15:02.621Z,28.80
2018-03-25T02:17:33.498Z,32.23
2018-03-25T02:20:00.674Z,30.37
2018-03-25T02:22:27.913Z,27.57
2018-03-25T02:24:55.192Z,27.27
2018-03-25T02:27:23.713Z,28.10
2018-03-25T02:29:51.017Z,28.90
2018-03-25T02:32:18.323Z,30.13
2018-03-25T02:34:46.213Z,29.10
2018-03-25T02:37:16.965Z,28.90
2018-03-25T02:39:44.249Z,29.10
2018-03-25T02:42:11.953Z,29.33
2018-03-25T02:44:39.091Z,27.40
2018-03-25T02:47:06.511Z,24.33
2018-03-25T02:49:33.703Z,26.17
2018-03-25T02:52:00.991Z,26.93
2018-03-25T02:54:27.960Z,23.67
2018-03-25T02:56:55.206Z,27.17
2018-03-25T02:59:22.421Z,22.57
2018-03-25T03:01:49.705Z,21.77
2018-03-25T03:04:16.953Z,21.93
2018-03-25T03:06:45.362Z,28.80
2018-03-25T03:09:13.790Z,24.73
2018-03-25T03:11:41.089Z,27.77
2018-03-25T03:14:09.010Z,30.17
2018-03-25T03:16:39.502Z,25.80
2018-03-25T03:19:06.641Z,27.93
2018-03-25T03:21:33.834Z,29.30
2018-03-25T03:24:01.061Z,29.43
2018-03-25T03:26:28.374Z,30.80
2018-03-25T03:28:56.178Z,25.33
2018-03-25T03:31:23.480Z,23.83
2018-03-25T03:33:50.635Z,28.47
2018-03-25T03:36:17.938Z,30.83
2018-03-25T03:38:45.269Z,25.93
2018-03-25T03:41:13.336Z,27.57
2018-03-25T03:43:40.503Z,28.93
2018-03-25T03:46:07.756Z,30.03
2018-03-25T03:48:35.125Z,30.17
2018-03-25T03:51:02.267Z,31.63
2018-03-25T03:53:29.596Z,29.07
2018-03-25T03:55:57.074Z,24.13
2018-03-25T03:58:24.201Z,28.30
2018-03-25T04:00:51.297Z,26.50
2018-03-25T04:03:18.500Z,28.30
2018-03-25T04:05:45.802Z,22.97
2018-03-25T04:08:12.993Z,26.90
2018-03-25T04:10:40.174Z,27.10
2018-03-25T04:13:07.377Z,21.97
2018-03-25T04:15:34.690Z,22.13
2018-03-25T04:18:02.036Z,23.70
2018-03-25T04:20:29.233Z,22.13
2018-03-25T04:22:56.490Z,24.53
2018-03-25T04:25:24.553Z,24.30
2018-03-25T04:27:51.801Z,26.37
2018-03-25T04:30:19.030Z,32.20
2018-03-25T04:32:46.330Z,24.70
2018-03-25T04:35:13.594Z,27.43
2018-03-25T04:37:42.838Z,26.97
2018-03-25T04:40:10.265Z,24.97
2018-03-25T04:42:37.464Z,24.13
2018-03-25T04:45:04.574Z,23.17
2018-03-25T04:47:32.957Z,22.23
2018-03-25T04:50:00.206Z,24.03
2018-03-25T04:52:27.309Z,22.87
2018-03-25T04:54:54.364Z,27.17
2018-03-25T04:57:21.748Z,28.43
2018-03-25T04:59:49.004Z,27.80
2018-03-25T05:02:16.163Z,26.53
2018-03-25T05:04:43.329Z,24.97
2018-03-25T05:07:13.889Z,26.90
2018-03-25T05:09:41.130Z,25.80
2018-03-25T05:12:08.345Z,26.00
2018-03-25T05:14:35.571Z,23.13
2018-03-25T05:17:03.845Z,25.03
2018-03-25T05:19:31.130Z,27.23
2018-03-25T05:21:58.426Z,35.10
2018-03-25T05:24:25.685Z,31.87
2018-03-25T05:26:56.738Z,37.50
2018-03-25T05:29:24.267Z,22.23
2018-03-25T05:31:51.468Z,24.43
2018-03-25T05:34:18.854Z,33.00
2018-03-25T05:36:49.446Z,24.63
2018-03-25T05:39:16.706Z,25.70
2018-03-25T05:41:44.071Z,39.50
2018-03-25T05:44:11.498Z,28.97
2018-03-25T05:46:42.153Z,23.33
2018-03-25T05:49:09.317Z,23.10
2018-03-25T05:51:36.556Z,19.60
2018-03-25T05:54:03.877Z,22.73
2018-03-25T05:56:32.274Z,20.83
2018-03-25T05:58:59.542Z,20.47
2018-03-25T06:01:26.909Z,20.10
2018-03-25T06:03:54.241Z,21.70
2018-03-25T06:06:21.522Z,26.47
2018-03-25T06:08:49.678Z,35.00
2018-03-25T06:11:16.753Z,33.57
2018-03-25T06:13:43.886Z,25.77
2018-03-25T06:16:12.029Z,24.53
2018-03-25T06:18:39.261Z,23.67
2018-03-25T06:21:06.978Z,29.83
2018-03-25T06:23:34.195Z,27.43
2018-03-25T06:26:01.655Z,28.90
2018-03-25T06:28:29.702Z,32.53
2018-03-25T06:30:57.010Z,26.83
2018-03-25T06:33:24.122Z,19.50
2018-03-25T06:35:52.086Z,21.37
2018-03-25T06:38:19.402Z,23.90
2018-03-25T06:40:46.547Z,22.37
2018-03-25T06:43:13.894Z,28.57
2018-03-25T06:45:42.925Z,24.27
2018-03-25T06:48:10.826Z,20.80
2018-03-25T06:50:38.037Z,19.30
2018-03-25T06:53:05.269Z,21.47
2018-03-25T06:55:32.772Z,21.40
2018-03-25T06:58:00.087Z,17.73
2018-03-25T07:00:27.375Z,18.67
2018-03-25T07:02:54.544Z,42.97
2018-03-25T07:05:22.885Z,102.97
2018-03-25T07:07:50.171Z,64.77
2018-03-25T07:10:17.712Z,125.87
2018-03-25T07:12:45.047Z,126.77
2018-03-25T07:15:13.457Z,89.43
2018-03-25T07:17:40.834Z,99.07
2018-03-25T07:20:08.101Z,111.73
2018-03-25T07:22:35.409Z,57.77
2018-03-25T07:25:02.550Z,32.40
2018-03-25T07:27:29.808Z,87.23
2018-03-25T07:29:57.050Z,62.93
2018-03-25T07:32:24.429Z,79.57
2018-03-25T07:34:52.337Z,30.30
2018-03-25T07:37:19.627Z,24.17
2018-03-25T07:39:47.443Z,22.53
2018-03-25T07:42:14.694Z,23.13
2018-03-25T07:44:41.941Z,26.30
2018-03-25T07:47:09.358Z,22.40
2018-03-25T07:49:36.641Z,22.93
2018-03-25T07:52:03.904Z,25.43
2018-03-25T07:54:31.134Z,21.73
2018-03-25T07:56:59.480Z,23.93
2018-03-25T07:59:27.424Z,27.27
2018-03-25T08:01:55.397Z,18.37
2018-03-25T08:04:22.466Z,22.40
2018-03-25T08:06:53.835Z,16.50
2018-03-25T08:09:21.091Z,35.47
2018-03-25T08:11:48.361Z,28.23
2018-03-25T08:14:15.651Z,27.00
2018-03-25T08:16:43.763Z,24.80
2018-03-25T08:19:10.981Z,34.23
2018-03-25T08:21:38.244Z,25.40
2018-03-25T08:24:05.536Z,26.27
2018-03-25T08:26:32.846Z,24.37
2018-03-25T08:29:00.161Z,35.70
2018-03-25T08:31:27.313Z,38.17
2018-03-25T08:33:54.481Z,35.50
2018-03-25T08:36:23.553Z,44.23
2018-03-25T08:38:50.843Z,30.53
2018-03-25T08:41:18.295Z,35.10
2018-03-25T08:43:45.539Z,31.73
2018-03-25T08:46:12.772Z,28.03
2018-03-25T08:48:40.088Z,25.80
2018-03-25T08:51:07.359Z,25.30
2018-03-25T08:53:35.326Z,29.07
2018-03-25T08:56:03.725Z,29.83
2018-03-25T08:58:30.894Z,57.07
2018-03-25T09:00:58.164Z,31.10
2018-03-25T09:03:25.270Z,55.67
2018-03-25T09:05:55.738Z,40.77
2018-03-25T09:08:22.900Z,25.07
2018-03-25T09:10:50.298Z,24.80
2018-03-25T09:13:17.558Z,59.20
2018-03-25T09:15:51.805Z,62.13
2018-03-25T09:18:19.082Z,56.97
2018-03-25T09:20:46.391Z,26.10
2018-03-25T09:23:13.586Z,48.13
2018-03-25T09:25:41.706Z,68.63
2018-03-25T09:28:09.034Z,34.47
2018-03-25T09:30:36.285Z,27.07
2018-03-25T09:33:03.569Z,27.73
2018-03-25T09:35:30.794Z,25.73
2018-03-25T09:37:58.799Z,25.17
2018-03-25T09:40:26.075Z,25.90
2018-03-25T09:42:53.317Z,25.00
2018-03-25T09:45:21.662Z,24.63
2018-03-25T09:47:48.830Z,23.47
2018-03-25T09:50:16.283Z,23.33
2018-03-25T09:52:43.638Z,42.90
2018-03-25T09:55:10.914Z,33.53
2018-03-25T09:57:38.127Z,31.70
2018-03-25T10:00:05.355Z,32.33
2018-03-25T10:02:38.690Z,26.60
2018-03-25T10:05:05.970Z,37.03
2018-03-25T10:07:33.180Z,45.90
2018-03-25T10:10:00.353Z,39.37
2018-03-25T10:12:27.617Z,60.10
2018-03-25T10:14:56.231Z,45.37
2018-03-25T10:17:23.359Z,49.80
2018-03-25T10:19:50.633Z,35.53
2018-03-25T10:22:19.287Z,33.63
2018-03-25T10:24:46.608Z,31.43
2018-03-25T10:27:14.164Z,30.97
2018-03-25T10:29:41.393Z,44.17
2018-03-25T10:32:08.725Z,35.67
2018-03-25T10:34:37.233Z,36.23
2018-03-25T10:37:04.370Z,37.47
2018-03-25T10:39:31.797Z,29.37
2018-03-25T10:41:59.028Z,30.37
2018-03-25T10:44:26.481Z,27.03
2018-03-25T10:46:53.751Z,27.43
2018-03-25T10:49:21.078Z,26.23
2018-03-25T10:51:48.219Z,27.80
2018-03-25T10:54:15.717Z,20.47
2018-03-25T10:56:43.075Z,26.47
2018-03-25T10:59:10.204Z,22.53
2018-03-25T11:01:37.366Z,25.67
2018-03-25T11:04:04.527Z,41.30
2018-03-25T11:06:31.858Z,45.63
2018-03-25T11:08:59.054Z,34.83
2018-03-25T11:11:26.639Z,43.43
2018-03-25T11:13:53.819Z,32.47
2018-03-25T11:16:21.388Z,37.53
2018-03-25T11:18:48.626Z,32.00
2018-03-25T11:21:16.474Z,33.73
2018-03-25T11:23:43.693Z,32.27
2018-03-25T11:26:14.578Z,41.70
2018-03-25T11:28:41.998Z,36.37
2018-03-25T11:31:09.242Z,39.47
2018-03-25T11:33:37.099Z,32.97
2018-03-25T11:36:06.515Z,26.10
2018-03-25T11:38:33.678Z,24.47
2018-03-25T11:41:00.908Z,37.60
2018-03-25T11:43:28.066Z,38.30
2018-03-25T11:45:59.203Z,68.77
2018-03-25T11:48:26.461Z,34.57
2018-03-25T11:50:53.620Z,29.50
2018-03-25T11:53:20.870Z,31.40
2018-03-25T11:55:53.207Z,26.33
2018-03-25T11:58:20.490Z,29.97
2018-03-25T12:00:47.798Z,23.90
2018-03-25T12:03:15.127Z,28.10
2018-03-25T12:05:43.383Z,25.27
2018-03-25T12:08:10.773Z,16.03
2018-03-25T12:10:37.926Z,20.00
2018-03-25T12:13:05.274Z,24.07
2018-03-25T12:15:33.739Z,25.20
2018-03-25T12:18:01.125Z,23.77
2018-03-25T12:20:28.329Z,21.13
2018-03-25T12:22:55.651Z,23.50
2018-03-25T12:25:23.023Z,22.73
2018-03-25T12:27:50.192Z,24.67
2018-03-25T12:30:17.326Z,31.03
2018-03-25T12:32:44.487Z,35.27
2018-03-25T12:35:14.083Z,23.97
2018-03-25T12:37:41.297Z,28.17
2018-03-25T12:40:08.430Z,28.17
2018-03-25T12:42:36.058Z,22.77
2018-03-25T12:45:03.338Z,28.17
2018-03-25T12:50:21.107Z,44.53
2018-03-25T12:52:48.856Z,32.23
2018-03-25T12:55:17.368Z,36.73
2018-03-25T12:57:44.612Z,27.43
2018-03-25T13:00:12.333Z,25.30
2018-03-25T13:02:39.587Z,22.10
2018-03-25T13:05:06.964Z,21.37
2018-03-25T13:07:49.118Z,32.47
2018-03-25T13:10:16.467Z,21.97
2018-03-25T13:12:43.567Z,20.10
2018-03-25T13:15:11.031Z,18.10
2018-03-25T13:17:39.094Z,31.57
2018-03-25T13:20:06.489Z,43.87
2018-03-25T13:22:33.678Z,23.50
2018-03-25T13:25:01.769Z,21.30
2018-03-25T13:27:29.008Z,28.13
2018-03-25T13:29:56.601Z,28.73
2018-03-25T13:32:24.650Z,25.37
2018-03-25T13:34:55.754Z,28.33
2018-03-25T13:37:23.088Z,25.27
2018-03-25T13:39:50.346Z,36.60
2018-03-25T13:42:17.505Z,26.03
2018-03-25T13:44:48.649Z,27.33
2018-03-25T13:47:15.894Z,37.90
2018-03-25T13:49:43.058Z,33.93
2018-03-25T13:52:10.212Z,43.87
2018-03-25T13:54:40.933Z,50.40
2018-03-25T13:57:08.887Z,46.23
2018-03-25T13:59:36.813Z,63.30
2018-03-25T14:02:04.004Z,38.13
2018-03-25T14:04:32.287Z,31.67
2018-03-25T14:06:59.507Z,28.97
2018-03-25T14:09:26.593Z,25.83
2018-03-25T14:11:53.971Z,31.13
2018-03-25T14:14:25.495Z,36.90
2018-03-25T14:16:52.650Z,31.40
2018-03-25T14:19:19.824Z,24.67
2018-03-25T14:21:47.183Z,19.23
2018-03-25T14:24:17.790Z,21.57
2018-03-25T14:26:45.039Z,20.83
2018-03-25T14:29:12.189Z,21.77
2018-03-25T14:31:39.312Z,21.87
2018-03-25T14:34:06.630Z,26.53
2018-03-25T14:36:33.840Z,23.90
2018-03-25T14:39:01.079Z,32.57
2018-03-25T14:41:28.287Z,28.70
2018-03-25T14:43:55.535Z,22.63
2018-03-25T14:46:22.774Z,38.60
2018-03-25T14:48:49.891Z,32.60
2018-03-25T14:51:17.805Z,20.20
2018-03-25T14:53:45.105Z,32.27
2018-03-25T14:56:12.364Z,29.70
2018-03-25T14:58:39.667Z,48.03
2018-03-25T15:01:06.836Z,29.33
2018-03-25T15:03:34.066Z,50.73
2018-03-25T15:06:02.279Z,27.40
2018-03-25T15:08:29.466Z,33.90
2018-03-25T15:10:56.751Z,22.77
2018-03-25T15:13:24.031Z,29.03
2018-03-25T15:15:55.673Z,24.90
2018-03-25T15:18:22.807Z,25.10
2018-03-25T15:20:50.423Z,18.83
2018-03-25T15:23:17.628Z,31.67
2018-03-25T15:25:44.971Z,23.10
2018-03-25T15:28:12.210Z,32.17
2018-03-25T15:30:39.409Z,33.40
2018-03-25T15:33:06.574Z,22.00
2018-03-25T15:35:40.374Z,43.70
2018-03-25T15:38:07.562Z,40.40
2018-03-25T15:40:34.603Z,27.07
2018-03-25T15:43:02.480Z,21.90
2018-03-25T15:45:33.421Z,29.77
2018-03-25T15:48:00.630Z,36.07
2018-03-25T15:50:27.802Z,27.87
2018-03-25T15:52:54.983Z,39.77
2018-03-25T15:55:23.206Z,35.47
2018-03-25T15:57:50.403Z,60.17
2018-03-25T16:00:17.683Z,56.80
2018-03-25T16:02:45.028Z,71.17
2018-03-25T16:05:16.406Z,50.43
2018-03-25T16:07:43.596Z,42.67
2018-03-25T16:10:10.746Z,40.93
2018-03-25T16:12:37.925Z,32.33
2018-03-25T16:15:09.571Z,24.17
2018-03-25T16:17:37.513Z,22.47
2018-03-25T16:20:04.712Z,29.73
2018-03-25T16:22:31.873Z,72.27
2018-03-25T16:25:00.074Z,85.23
2018-03-25T16:27:27.318Z,53.57
2018-03-25T16:29:55.363Z,145.17
2018-03-25T16:32:23.054Z,39.10
2018-03-25T16:34:51.645Z,23.93
2018-03-25T16:37:19.699Z,60.67
2018-03-25T16:39:46.897Z,43.33
2018-03-25T16:42:14.172Z,32.17
2018-03-25T16:44:47.740Z,31.67
2018-03-25T16:47:15.029Z,31.73
2018-03-25T16:49:42.254Z,33.93
2018-03-25T16:52:09.503Z,46.43
2018-03-25T16:54:37.863Z,32.67
2018-03-25T16:57:04.961Z,37.87
2018-03-25T16:59:32.323Z,53.07
2018-03-25T17:02:00.110Z,38.27
2018-03-25T17:04:31.126Z,45.73
2018-03-25T17:06:58.378Z,31.60
2018-03-25T17:09:26.399Z,29.83
2018-03-25T17:11:53.700Z,31.93
2018-03-25T17:14:25.333Z,24.77
2018-03-25T17:16:52.665Z,27.70
2018-03-25T17:19:20.051Z,54.20
2018-03-25T17:21:47.241Z,45.93
2018-03-25T17:24:18.642Z,53.30
2018-03-25T17:26:45.929Z,41.03
2018-03-25T17:29:13.365Z,47.93
2018-03-25T17:31:40.659Z,53.67
2018-03-25T17:34:11.442Z,46.47
2018-03-25T17:36:38.541Z,46.50
2018-03-25T17:39:05.691Z,46.10
2018-03-25T17:41:33.362Z,46.27
2018-03-25T17:44:05.113Z,52.37
2018-03-25T17:46:32.318Z,61.87
2018-03-25T17:49:00.270Z,77.13
2018-03-25T17:51:27.661Z,74.77
2018-03-25T17:53:58.527Z,60.90
2018-03-25T17:56:25.985Z,59.00
2018-03-25T17:58:55.047Z,50.33
2018-03-25T18:01:23.294Z,44.40
2018-03-25T18:03:55.928Z,54.27
2018-03-25T18:06:23.235Z,57.43
2018-03-25T18:08:50.416Z,74.57
2018-03-25T18:11:17.695Z,66.03
2018-03-25T18:13:48.288Z,59.07
2018-03-25T18:16:15.695Z,68.97
2018-03-25T18:18:43.387Z,68.80
2018-03-25T18:21:10.714Z,73.40
2018-03-25T18:23:41.015Z,65.50
2018-03-25T18:26:08.385Z,65.37
2018-03-25T18:28:36.563Z,81.53
2018-03-25T18:31:04.213Z,77.00
2018-03-25T18:33:32.479Z,73.30
2018-03-25T18:35:59.806Z,74.03
2018-03-25T18:38:27.015Z,58.37
2018-03-25T18:40:55.250Z,62.53
2018-03-25T18:43:25.581Z,69.03
2018-03-25T18:45:53.619Z,61.50
2018-03-25T18:48:20.895Z,60.17
2018-03-25T18:50:49.050Z,55.60
2018-03-25T18:53:16.299Z,54.13
2018-03-25T18:55:44.179Z,51.27
2018-03-25T18:58:12.050Z,52.33
2018-03-25T19:00:39.611Z,54.27
2018-03-25T19:03:06.794Z,52.77
2018-03-25T19:05:34.939Z,65.13
2018-03-25T19:08:02.822Z,41.17
2018-03-25T19:10:30.115Z,57.10
2018-03-25T19:12:59.099Z,52.07
2018-03-25T19:15:29.447Z,42.60
2018-03-25T19:17:56.771Z,49.13
2018-03-25T19:20:23.949Z,52.13
2018-03-25T19:22:51.245Z,46.17
2018-03-25T19:25:18.554Z,45.53
2018-03-25T19:27:46.067Z,45.03
2018-03-25T19:30:13.874Z,53.83
2018-03-25T19:32:41.991Z,45.23
2018-03-25T19:35:13.210Z,51.23
2018-03-25T19:37:43.053Z,41.37
2018-03-25T19:40:10.142Z,42.00
2018-03-25T19:42:38.150Z,41.10
2018-03-25T19:45:05.611Z,42.80
2018-03-25T19:47:34.001Z,41.13
2018-03-25T19:50:01.365Z,40.43
2018-03-25T19:52:28.744Z,36.37
2018-03-25T19:54:56.361Z,37.57
2018-03-25T19:57:23.727Z,35.10
2018-03-25T19:59:50.795Z,35.97
2018-03-25T20:02:18.011Z,32.67
2018-03-25T20:04:49.201Z,41.23
2018-03-25T20:07:16.484Z,33.07
2018-03-25T20:09:43.655Z,31.37
2018-03-25T20:12:11.031Z,39.23
2018-03-25T20:14:39.522Z,34.23
2018-03-25T20:17:06.872Z,40.20
2018-03-25T20:19:35.046Z,49.63
2018-03-25T20:22:02.650Z,39.63
2018-03-25T20:24:31.323Z,41.47
2018-03-25T20:26:58.554Z,37.63
2018-03-25T20:29:26.570Z,37.63
2018-03-25T20:31:53.939Z,36.70
2018-03-25T20:34:21.495Z,45.70
2018-03-25T20:36:49.699Z,47.07
2018-03-25T20:39:17.011Z,43.40
2018-03-25T20:41:44.215Z,41.70
2018-03-25T20:44:12.604Z,39.43
2018-03-25T20:46:39.743Z,33.13
2018-03-25T20:49:07.509Z,41.20
2018-03-25T20:51:34.826Z,44.80
2018-03-25T20:54:03.399Z,37.73
2018-03-25T20:56:31.335Z,36.80
2018-03-25T20:58:58.501Z,38.80
2018-03-25T21:01:25.746Z,36.30
2018-03-25T21:03:54.143Z,37.33
2018-03-25T21:06:21.393Z,34.70
2018-03-25T21:08:48.550Z,33.70
2018-03-25T21:11:15.910Z,36.67
2018-03-25T21:13:47.102Z,32.73
2018-03-25T21:16:14.214Z,32.27
2018-03-25T21:18:41.433Z,30.43
2018-03-25T21:21:08.689Z,34.53
2018-03-25T21:23:40.259Z,40.63
2018-03-25T21:26:07.537Z,29.23
2018-03-25T21:28:34.733Z,33.37
2018-03-25T21:31:01.949Z,30.77
2018-03-25T21:33:30.162Z,31.40
2018-03-25T21:35:57.880Z,36.77
2018-03-25T21:38:25.217Z,33.47
2018-03-25T21:40:52.492Z,38.47
2018-03-25T21:43:23.473Z,30.53
2018-03-25T21:45:50.732Z,32.20
2018-03-25T21:48:17.935Z,34.63
2018-03-25T21:50:45.167Z,37.13
2018-03-25T21:53:17.918Z,29.27
2018-03-25T21:55:45.746Z,34.77
2018-03-25T21:58:12.848Z,32.80
2018-03-25T22:00:40.010Z,33.13
2018-03-25T22:03:08.296Z,32.33
2018-03-25T22:05:35.611Z,30.87
2018-03-25T22:08:02.790Z,34.13
2018-03-25T22:10:30.444Z,30.47
2018-03-25T22:12:58.690Z,37.27
2018-03-25T22:15:25.906Z,33.20
2018-03-25T22:17:53.181Z,31.97
2018-03-25T22:20:20.522Z,29.27
2018-03-25T22:22:48.331Z,33.47
2018-03-25T22:25:15.557Z,31.50
2018-03-25T22:27:42.931Z,31.23
2018-03-25T22:30:10.166Z,30.67
2018-03-25T22:32:37.279Z,31.77
2018-03-25T22:35:04.455Z,30.43
2018-03-25T22:37:31.731Z,29.97
2018-03-25T22:39:59.028Z,29.63
2018-03-25T22:42:26.285Z,30.37
2018-03-25T22:44:57.343Z,25.87
2018-03-25T22:47:24.662Z,28.37
2018-03-25T22:49:52.052Z,28.40
2018-03-25T22:52:19.160Z,28.13
2018-03-25T22:54:47.345Z,29.70
2018-03-25T22:57:14.601Z,34.77
2018-03-25T22:59:41.924Z,29.07
2018-03-25T23:02:08.948Z,35.80
2018-03-25T23:04:39.608Z,34.30
2018-03-25T23:07:07.617Z,37.23
2018-03-25T23:09:34.697Z,32.43
2018-03-25T23:12:02.007Z,30.90
2018-03-25T23:14:32.813Z,29.07
2018-03-25T23:17:00.748Z,32.90
2018-03-25T23:19:28.110Z,29.00
2018-03-25T23:21:55.384Z,30.77
2018-03-25T23:24:25.957Z,31.17
2018-03-25T23:26:53.197Z,25.60
2018-03-25T23:29:20.498Z,28.83
2018-03-25T23:31:47.781Z,29.10
2018-03-25T23:34:18.102Z,26.20
2018-03-25T23:36:45.522Z,28.83
2018-03-25T23:39:12.738Z,28.47
2018-03-25T23:41:40.484Z,24.43
2018-03-25T23:44:07.809Z,29.53
2018-03-25T23:46:35.393Z,27.87
2018-03-25T23:49:02.500Z,28.67
2018-03-25T23:51:29.686Z,28.50
2018-03-25T23:54:00.260Z,29.57
2018-03-25T23:56:27.550Z,28.70
2018-03-25T23:58:54.833Z,26.53
